sensor_id;sensor_type;location;lat;lon;timestamp;temperature;humidity
4054;DHT22;2042;47.956;9.222;2022-07-06T00:01:38;11.40;10.10
4054;DHT22;2042;47.956;9.222;2022-07-06T00:04:04;11.30;10.50
4054;DHT22;2042;47.956;9.222;2022-07-06T00:06:30;11.30;11.20
4054;DHT22;2042;47.956;9.222;2022-07-06T00:08:56;11.30;12.40
4054;DHT22;2042;47.956;9.222;2022-07-06T00:11:22;11.30;12.60
4054;DHT22;2042;47.956;9.222;2022-07-06T00:13:48;11.30;12.90
4054;DHT22;2042;47.956;9.222;2022-07-06T00:16:14;11.20;12.90
4054;DHT22;2042;47.956;9.222;2022-07-06T00:18:40;11.20;13.00
4054;DHT22;2042;47.956;9.222;2022-07-06T00:21:06;11.10;12.60
4054;DHT22;2042;47.956;9.222;2022-07-06T00:23:32;11.00;13.00
4054;DHT22;2042;47.956;9.222;2022-07-06T00:25:57;10.90;13.50
4054;DHT22;2042;47.956;9.222;2022-07-06T00:28:23;10.90;14.00
4054;DHT22;2042;47.956;9.222;2022-07-06T00:30:49;10.90;14.50
4054;DHT22;2042;47.956;9.222;2022-07-06T00:33:15;10.90;15.10
4054;DHT22;2042;47.956;9.222;2022-07-06T00:35:41;10.80;15.40
4054;DHT22;2042;47.956;9.222;2022-07-06T00:38:07;10.80;15.80
4054;DHT22;2042;47.956;9.222;2022-07-06T00:40:32;10.80;15.60
4054;DHT22;2042;47.956;9.222;2022-07-06T00:42:58;10.80;14.80
4054;DHT22;2042;47.956;9.222;2022-07-06T00:45:24;10.80;15.30
4054;DHT22;2042;47.956;9.222;2022-07-06T00:47:50;10.80;15.30
4054;DHT22;2042;47.956;9.222;2022-07-06T00:50:17;10.70;14.90
4054;DHT22;2042;47.956;9.222;2022-07-06T00:52:48;10.70;15.20
4054;DHT22;2042;47.956;9.222;2022-07-06T00:55:15;10.70;15.50
4054;DHT22;2042;47.956;9.222;2022-07-06T00:57:42;10.70;15.70
4054;DHT22;2042;47.956;9.222;2022-07-06T01:00:10;10.70;15.90
4054;DHT22;2042;47.956;9.222;2022-07-06T01:02:36;10.70;16.00
4054;DHT22;2042;47.956;9.222;2022-07-06T01:05:07;10.60;15.10
4054;DHT22;2042;47.956;9.222;2022-07-06T01:07:34;10.60;14.70
4054;DHT22;2042;47.956;9.222;2022-07-06T01:10:03;10.50;14.70
4054;DHT22;2042;47.956;9.222;2022-07-06T01:12:29;10.50;15.30
4054;DHT22;2042;47.956;9.222;2022-07-06T01:14:56;10.40;15.40
4054;DHT22;2042;47.956;9.222;2022-07-06T01:17:22;10.40;15.20
4054;DHT22;2042;47.956;9.222;2022-07-06T01:19:48;10.30;14.80
4054;DHT22;2042;47.956;9.222;2022-07-06T01:22:14;10.30;14.80
4054;DHT22;2042;47.956;9.222;2022-07-06T01:24:40;10.20;15.20
4054;DHT22;2042;47.956;9.222;2022-07-06T01:27:06;10.20;15.30
4054;DHT22;2042;47.956;9.222;2022-07-06T01:29:34;10.10;15.50
4054;DHT22;2042;47.956;9.222;2022-07-06T01:32:00;10.10;15.50
4054;DHT22;2042;47.956;9.222;2022-07-06T01:34:26;10.10;15.10
4054;DHT22;2042;47.956;9.222;2022-07-06T01:36:53;10.00;14.70
4054;DHT22;2042;47.956;9.222;2022-07-06T01:39:20;10.00;14.70
4054;DHT22;2042;47.956;9.222;2022-07-06T01:41:45;10.00;14.80
4054;DHT22;2042;47.956;9.222;2022-07-06T01:44:11;9.90;15.00
4054;DHT22;2042;47.956;9.222;2022-07-06T01:46:37;9.90;14.90
4054;DHT22;2042;47.956;9.222;2022-07-06T01:49:04;9.90;14.80
4054;DHT22;2042;47.956;9.222;2022-07-06T01:51:29;9.80;14.60
4054;DHT22;2042;47.956;9.222;2022-07-06T01:53:55;9.80;14.90
4054;DHT22;2042;47.956;9.222;2022-07-06T01:56:21;9.80;15.50
4054;DHT22;2042;47.956;9.222;2022-07-06T01:58:47;9.70;15.70
4054;DHT22;2042;47.956;9.222;2022-07-06T02:01:16;9.70;16.80
4054;DHT22;2042;47.956;9.222;2022-07-06T02:03:43;9.70;17.10
4054;DHT22;2042;47.956;9.222;2022-07-06T02:06:09;9.70;17.60
4054;DHT22;2042;47.956;9.222;2022-07-06T02:08:36;9.70;17.80
4054;DHT22;2042;47.956;9.222;2022-07-06T02:11:03;9.60;17.60
4054;DHT22;2042;47.956;9.222;2022-07-06T02:13:29;9.60;18.30
4054;DHT22;2042;47.956;9.222;2022-07-06T02:18:21;9.60;18.60
4054;DHT22;2042;47.956;9.222;2022-07-06T02:20:46;9.70;19.40
4054;DHT22;2042;47.956;9.222;2022-07-06T02:23:12;9.70;18.90
4054;DHT22;2042;47.956;9.222;2022-07-06T02:25:38;9.60;18.20
4054;DHT22;2042;47.956;9.222;2022-07-06T02:28:04;9.60;17.50
4054;DHT22;2042;47.956;9.222;2022-07-06T02:30:29;9.50;17.10
4054;DHT22;2042;47.956;9.222;2022-07-06T02:32:55;9.50;17.10
4054;DHT22;2042;47.956;9.222;2022-07-06T02:35:21;9.40;17.00
4054;DHT22;2042;47.956;9.222;2022-07-06T02:37:46;9.40;17.00
4054;DHT22;2042;47.956;9.222;2022-07-06T02:40:12;9.40;17.40
4054;DHT22;2042;47.956;9.222;2022-07-06T02:42:38;9.40;18.20
4054;DHT22;2042;47.956;9.222;2022-07-06T02:45:04;9.40;18.70
4054;DHT22;2042;47.956;9.222;2022-07-06T02:47:30;9.40;19.60
4054;DHT22;2042;47.956;9.222;2022-07-06T02:49:56;9.40;20.40
4054;DHT22;2042;47.956;9.222;2022-07-06T02:52:21;9.40;20.60
4054;DHT22;2042;47.956;9.222;2022-07-06T02:54:47;9.40;20.50
4054;DHT22;2042;47.956;9.222;2022-07-06T02:57:15;9.40;20.30
4054;DHT22;2042;47.956;9.222;2022-07-06T02:59:41;9.30;19.90
4054;DHT22;2042;47.956;9.222;2022-07-06T03:02:07;9.30;19.50
4054;DHT22;2042;47.956;9.222;2022-07-06T03:04:33;9.30;19.20
4054;DHT22;2042;47.956;9.222;2022-07-06T03:06:59;9.30;18.90
4054;DHT22;2042;47.956;9.222;2022-07-06T03:09:25;9.30;18.70
4054;DHT22;2042;47.956;9.222;2022-07-06T03:11:50;9.20;18.60
4054;DHT22;2042;47.956;9.222;2022-07-06T03:14:16;9.20;18.50
4054;DHT22;2042;47.956;9.222;2022-07-06T03:16:42;9.10;18.70
4054;DHT22;2042;47.956;9.222;2022-07-06T03:19:07;9.10;19.10
4054;DHT22;2042;47.956;9.222;2022-07-06T03:21:33;9.10;19.30
4054;DHT22;2042;47.956;9.222;2022-07-06T03:23:59;9.10;19.30
4054;DHT22;2042;47.956;9.222;2022-07-06T03:26:24;9.10;19.20
4054;DHT22;2042;47.956;9.222;2022-07-06T03:28:50;9.10;19.10
4054;DHT22;2042;47.956;9.222;2022-07-06T03:31:16;9.10;18.80
4054;DHT22;2042;47.956;9.222;2022-07-06T03:33:42;9.10;18.60
4054;DHT22;2042;47.956;9.222;2022-07-06T03:36:07;9.10;18.60
4054;DHT22;2042;47.956;9.222;2022-07-06T03:38:34;9.00;18.70
4054;DHT22;2042;47.956;9.222;2022-07-06T03:40:59;9.10;18.90
4054;DHT22;2042;47.956;9.222;2022-07-06T03:43:25;9.10;18.80
4054;DHT22;2042;47.956;9.222;2022-07-06T03:45:51;9.10;18.70
4054;DHT22;2042;47.956;9.222;2022-07-06T03:48:16;9.00;18.60
4054;DHT22;2042;47.956;9.222;2022-07-06T03:50:42;9.00;18.80
4054;DHT22;2042;47.956;9.222;2022-07-06T03:53:08;9.00;19.30
4054;DHT22;2042;47.956;9.222;2022-07-06T03:55:33;9.10;19.60
4054;DHT22;2042;47.956;9.222;2022-07-06T03:57:59;9.00;19.60
4054;DHT22;2042;47.956;9.222;2022-07-06T04:00:25;9.00;19.90
4054;DHT22;2042;47.956;9.222;2022-07-06T04:02:50;9.00;20.40
4054;DHT22;2042;47.956;9.222;2022-07-06T04:05:16;9.10;21.30
4054;DHT22;2042;47.956;9.222;2022-07-06T04:07:47;9.20;21.70
4054;DHT22;2042;47.956;9.222;2022-07-06T04:10:13;9.20;22.80
4054;DHT22;2042;47.956;9.222;2022-07-06T04:12:43;9.30;23.00
4054;DHT22;2042;47.956;9.222;2022-07-06T04:15:10;9.40;22.90
4054;DHT22;2042;47.956;9.222;2022-07-06T04:17:36;9.40;22.60
4054;DHT22;2042;47.956;9.222;2022-07-06T04:20:18;9.40;22.70
4054;DHT22;2042;47.956;9.222;2022-07-06T04:22:43;9.50;23.20
4054;DHT22;2042;47.956;9.222;2022-07-06T04:25:09;9.60;23.40
4054;DHT22;2042;47.956;9.222;2022-07-06T04:27:35;9.70;23.60
4054;DHT22;2042;47.956;9.222;2022-07-06T04:39:45;10.30;23.70
4054;DHT22;2042;47.956;9.222;2022-07-06T04:42:11;10.40;24.20
4054;DHT22;2042;47.956;9.222;2022-07-06T05:06:35;12.70;15.70
4054;DHT22;2042;47.956;9.222;2022-07-06T05:16:20;13.80;5.70
4054;DHT22;2042;47.956;9.222;2022-07-06T05:18:45;13.90;5.10
4054;DHT22;2042;47.956;9.222;2022-07-06T05:21:11;14.10;3.70
4054;DHT22;2042;47.956;9.222;2022-07-06T05:23:37;14.30;1.50
4054;DHT22;2042;47.956;9.222;2022-07-06T05:43:05;17.80;1.00
4054;DHT22;2042;47.956;9.222;2022-07-06T06:32:14;23.30;1.00
4054;DHT22;2042;47.956;9.222;2022-07-06T06:34:40;23.30;1.00
4054;DHT22;2042;47.956;9.222;2022-07-06T06:39:34;22.40;1.00
4054;DHT22;2042;47.956;9.222;2022-07-06T06:41:59;22.80;1.00
4054;DHT22;2042;47.956;9.222;2022-07-06T06:44:25;23.20;1.00
4054;DHT22;2042;47.956;9.222;2022-07-06T06:46:51;23.50;1.00
4054;DHT22;2042;47.956;9.222;2022-07-06T06:49:20;23.60;1.00
4054;DHT22;2042;47.956;9.222;2022-07-06T06:54:14;23.70;1.00
4054;DHT22;2042;47.956;9.222;2022-07-06T06:56:39;24.00;1.00
4054;DHT22;2042;47.956;9.222;2022-07-06T06:59:05;24.50;1.00
4054;DHT22;2042;47.956;9.222;2022-07-06T07:01:31;25.20;1.00
4054;DHT22;2042;47.956;9.222;2022-07-06T07:03:58;26.10;1.00
4054;DHT22;2042;47.956;9.222;2022-07-06T07:06:24;27.10;1.00
4054;DHT22;2042;47.956;9.222;2022-07-06T07:08:49;27.70;1.00
4054;DHT22;2042;47.956;9.222;2022-07-06T07:11:15;27.20;1.00
4054;DHT22;2042;47.956;9.222;2022-07-06T07:13:41;27.30;1.00
4054;DHT22;2042;47.956;9.222;2022-07-06T07:16:06;27.30;1.00
4054;DHT22;2042;47.956;9.222;2022-07-06T07:18:32;27.50;1.00
4054;DHT22;2042;47.956;9.222;2022-07-06T07:20:58;28.00;1.00
4054;DHT22;2042;47.956;9.222;2022-07-06T07:23:24;28.60;1.00
4054;DHT22;2042;47.956;9.222;2022-07-06T07:25:50;29.00;1.00
4054;DHT22;2042;47.956;9.222;2022-07-06T07:28:15;28.90;1.00
4054;DHT22;2042;47.956;9.222;2022-07-06T07:35:33;29.40;1.00
4054;DHT22;2042;47.956;9.222;2022-07-06T07:37:59;28.80;1.00
4054;DHT22;2042;47.956;9.222;2022-07-06T07:40:25;29.00;1.00
4054;DHT22;2042;47.956;9.222;2022-07-06T07:42:52;30.60;1.00
4054;DHT22;2042;47.956;9.222;2022-07-06T07:45:18;30.60;1.00
4054;DHT22;2042;47.956;9.222;2022-07-06T07:47:44;31.10;1.00
4054;DHT22;2042;47.956;9.222;2022-07-06T07:50:10;31.40;1.00
4054;DHT22;2042;47.956;9.222;2022-07-06T07:52:36;31.80;1.00
4054;DHT22;2042;47.956;9.222;2022-07-06T07:55:02;32.00;1.00
4054;DHT22;2042;47.956;9.222;2022-07-06T07:57:28;32.30;1.00
4054;DHT22;2042;47.956;9.222;2022-07-06T07:59:53;32.70;1.00
4054;DHT22;2042;47.956;9.222;2022-07-06T08:02:19;33.10;1.00
4054;DHT22;2042;47.956;9.222;2022-07-06T08:04:45;33.40;1.00
4054;DHT22;2042;47.956;9.222;2022-07-06T08:07:10;33.60;1.00
4054;DHT22;2042;47.956;9.222;2022-07-06T08:09:36;33.70;1.00
4054;DHT22;2042;47.956;9.222;2022-07-06T08:12:02;33.20;1.00
4054;DHT22;2042;47.956;9.222;2022-07-06T08:14:28;33.20;1.00
4054;DHT22;2042;47.956;9.222;2022-07-06T08:16:54;33.60;1.00
4054;DHT22;2042;47.956;9.222;2022-07-06T08:19:19;33.90;1.00
4054;DHT22;2042;47.956;9.222;2022-07-06T08:21:45;34.00;1.00
4054;DHT22;2042;47.956;9.222;2022-07-06T08:24:11;34.20;1.00
4054;DHT22;2042;47.956;9.222;2022-07-06T08:26:37;34.40;1.00
4054;DHT22;2042;47.956;9.222;2022-07-06T08:29:03;34.40;1.00
4054;DHT22;2042;47.956;9.222;2022-07-06T08:31:29;34.70;1.00
4054;DHT22;2042;47.956;9.222;2022-07-06T08:33:55;35.00;1.00
4054;DHT22;2042;47.956;9.222;2022-07-06T08:36:22;35.50;1.00
4054;DHT22;2042;47.956;9.222;2022-07-06T08:38:48;35.60;1.00
4054;DHT22;2042;47.956;9.222;2022-07-06T08:41:18;34.90;1.00
4054;DHT22;2042;47.956;9.222;2022-07-06T08:43:46;33.80;1.00
4054;DHT22;2042;47.956;9.222;2022-07-06T08:46:13;33.30;1.00
4054;DHT22;2042;47.956;9.222;2022-07-06T08:48:40;33.40;1.00
4054;DHT22;2042;47.956;9.222;2022-07-06T08:51:06;33.80;1.00
4054;DHT22;2042;47.956;9.222;2022-07-06T08:53:33;34.40;1.00
4054;DHT22;2042;47.956;9.222;2022-07-06T08:56:00;35.30;1.00
4054;DHT22;2042;47.956;9.222;2022-07-06T08:58:27;35.70;1.00
4054;DHT22;2042;47.956;9.222;2022-07-06T09:00:54;36.00;1.00
4054;DHT22;2042;47.956;9.222;2022-07-06T09:03:21;36.10;1.00
4054;DHT22;2042;47.956;9.222;2022-07-06T09:05:47;36.50;1.00
4054;DHT22;2042;47.956;9.222;2022-07-06T09:08:13;36.90;1.00
4054;DHT22;2042;47.956;9.222;2022-07-06T09:10:39;37.30;1.00
4054;DHT22;2042;47.956;9.222;2022-07-06T09:13:08;37.40;1.00
4054;DHT22;2042;47.956;9.222;2022-07-06T09:15:35;37.40;1.00
4054;DHT22;2042;47.956;9.222;2022-07-06T09:18:03;37.20;1.00
4054;DHT22;2042;47.956;9.222;2022-07-06T09:20:29;37.00;1.00
4054;DHT22;2042;47.956;9.222;2022-07-06T09:22:59;37.20;1.00
4054;DHT22;2042;47.956;9.222;2022-07-06T09:25:26;37.60;1.00
4054;DHT22;2042;47.956;9.222;2022-07-06T09:27:52;38.10;1.00
4054;DHT22;2042;47.956;9.222;2022-07-06T09:30:22;38.40;1.00
4054;DHT22;2042;47.956;9.222;2022-07-06T09:32:51;38.60;1.00
4054;DHT22;2042;47.956;9.222;2022-07-06T10:26:55;32.10;1.00
4054;DHT22;2042;47.956;9.222;2022-07-06T10:29:20;32.40;1.00
4054;DHT22;2042;47.956;9.222;2022-07-06T10:31:48;33.80;1.00
4054;DHT22;2042;47.956;9.222;2022-07-06T10:34:15;35.50;1.00
4054;DHT22;2042;47.956;9.222;2022-07-06T10:36:43;36.50;1.00
4054;DHT22;2042;47.956;9.222;2022-07-06T10:39:10;37.20;1.00
4054;DHT22;2042;47.956;9.222;2022-07-06T11:34:30;37.40;1.00
4054;DHT22;2042;47.956;9.222;2022-07-06T11:36:56;38.40;1.00
4054;DHT22;2042;47.956;9.222;2022-07-06T11:39:27;37.80;1.00
4054;DHT22;2042;47.956;9.222;2022-07-06T11:41:54;36.10;1.00
4054;DHT22;2042;47.956;9.222;2022-07-06T11:44:20;34.30;1.00
4054;DHT22;2042;47.956;9.222;2022-07-06T11:46:47;33.40;1.00
4054;DHT22;2042;47.956;9.222;2022-07-06T11:49:13;34.40;1.00
4054;DHT22;2042;47.956;9.222;2022-07-06T11:51:40;36.00;1.00
4054;DHT22;2042;47.956;9.222;2022-07-06T11:54:12;36.90;1.00
4054;DHT22;2042;47.956;9.222;2022-07-06T11:56:52;38.20;1.00
4054;DHT22;2042;47.956;9.222;2022-07-06T11:59:32;39.50;1.00
4054;DHT22;2042;47.956;9.222;2022-07-06T12:02:06;40.50;1.00
4054;DHT22;2042;47.956;9.222;2022-07-06T12:04:34;40.30;1.00
4054;DHT22;2042;47.956;9.222;2022-07-06T12:07:05;39.00;1.00
4054;DHT22;2042;47.956;9.222;2022-07-06T12:09:36;37.20;1.00
4054;DHT22;2042;47.956;9.222;2022-07-06T12:12:04;35.70;1.00
4054;DHT22;2042;47.956;9.222;2022-07-06T12:14:31;34.20;1.00
4054;DHT22;2042;47.956;9.222;2022-07-06T12:19:32;32.10;1.00
4054;DHT22;2042;47.956;9.222;2022-07-06T12:21:57;31.30;1.00
4054;DHT22;2042;47.956;9.222;2022-07-06T12:24:25;30.80;1.00
4054;DHT22;2042;47.956;9.222;2022-07-06T12:26:52;31.90;1.00
4054;DHT22;2042;47.956;9.222;2022-07-06T12:29:20;34.00;1.00
4054;DHT22;2042;47.956;9.222;2022-07-06T12:31:55;36.00;1.00
4054;DHT22;2042;47.956;9.222;2022-07-06T12:36:57;38.20;1.00
4054;DHT22;2042;47.956;9.222;2022-07-06T12:39:26;39.00;1.00
4054;DHT22;2042;47.956;9.222;2022-07-06T12:42:00;39.40;1.00
4054;DHT22;2042;47.956;9.222;2022-07-06T12:44:26;39.00;1.00
4054;DHT22;2042;47.956;9.222;2022-07-06T12:47:07;38.90;1.00
4054;DHT22;2042;47.956;9.222;2022-07-06T12:49:34;39.10;1.00
4054;DHT22;2042;47.956;9.222;2022-07-06T12:57:13;38.70;1.00
4054;DHT22;2042;47.956;9.222;2022-07-06T12:59:45;38.30;1.00
4054;DHT22;2042;47.956;9.222;2022-07-06T13:02:37;38.00;1.00
4054;DHT22;2042;47.956;9.222;2022-07-06T13:05:08;38.20;1.00
4054;DHT22;2042;47.956;9.222;2022-07-06T13:07:37;38.60;1.00
4054;DHT22;2042;47.956;9.222;2022-07-06T13:10:05;39.10;1.00
4054;DHT22;2042;47.956;9.222;2022-07-06T13:12:31;39.40;1.00
4054;DHT22;2042;47.956;9.222;2022-07-06T13:14:57;39.40;1.00
4054;DHT22;2042;47.956;9.222;2022-07-06T13:17:23;38.00;1.00
4054;DHT22;2042;47.956;9.222;2022-07-06T13:19:49;36.40;1.00
4054;DHT22;2042;47.956;9.222;2022-07-06T13:22:15;34.90;1.00
4054;DHT22;2042;47.956;9.222;2022-07-06T13:24:41;33.70;1.00
4054;DHT22;2042;47.956;9.222;2022-07-06T13:27:07;32.80;1.00
4054;DHT22;2042;47.956;9.222;2022-07-06T13:29:33;32.20;1.00
4054;DHT22;2042;47.956;9.222;2022-07-06T13:31:59;31.80;1.00
4054;DHT22;2042;47.956;9.222;2022-07-06T13:34:25;32.60;1.00
4054;DHT22;2042;47.956;9.222;2022-07-06T13:36:51;34.20;1.00
4054;DHT22;2042;47.956;9.222;2022-07-06T13:39:17;35.70;1.00
4054;DHT22;2042;47.956;9.222;2022-07-06T13:41:43;36.20;1.00
4054;DHT22;2042;47.956;9.222;2022-07-06T13:44:09;35.60;1.00
4054;DHT22;2042;47.956;9.222;2022-07-06T13:46:37;34.60;1.00
4054;DHT22;2042;47.956;9.222;2022-07-06T13:49:04;33.40;1.00
4054;DHT22;2042;47.956;9.222;2022-07-06T13:51:30;31.90;1.00
4054;DHT22;2042;47.956;9.222;2022-07-06T13:53:58;30.70;1.00
4054;DHT22;2042;47.956;9.222;2022-07-06T13:56:24;30.80;1.00
4054;DHT22;2042;47.956;9.222;2022-07-06T13:58:50;31.90;1.00
4054;DHT22;2042;47.956;9.222;2022-07-06T14:01:16;32.90;1.00
4054;DHT22;2042;47.956;9.222;2022-07-06T14:03:42;33.90;1.00
4054;DHT22;2042;47.956;9.222;2022-07-06T14:06:08;34.30;1.00
4054;DHT22;2042;47.956;9.222;2022-07-06T14:08:35;34.60;1.00
4054;DHT22;2042;47.956;9.222;2022-07-06T14:11:02;35.00;1.00
4054;DHT22;2042;47.956;9.222;2022-07-06T14:13:28;35.20;1.00
4054;DHT22;2042;47.956;9.222;2022-07-06T14:15:54;34.60;1.00
4054;DHT22;2042;47.956;9.222;2022-07-06T14:18:20;34.50;1.00
4054;DHT22;2042;47.956;9.222;2022-07-06T14:20:47;35.40;1.00
4054;DHT22;2042;47.956;9.222;2022-07-06T14:23:14;36.50;1.00
4054;DHT22;2042;47.956;9.222;2022-07-06T14:25:41;37.30;1.00
4054;DHT22;2042;47.956;9.222;2022-07-06T14:28:08;37.80;1.00
4054;DHT22;2042;47.956;9.222;2022-07-06T14:30:35;38.30;1.00
4054;DHT22;2042;47.956;9.222;2022-07-06T14:33:07;37.60;1.00
4054;DHT22;2042;47.956;9.222;2022-07-06T14:35:37;35.70;1.00
4054;DHT22;2042;47.956;9.222;2022-07-06T14:38:04;33.80;1.00
4054;DHT22;2042;47.956;9.222;2022-07-06T14:40:34;32.60;1.00
4054;DHT22;2042;47.956;9.222;2022-07-06T14:43:00;32.90;1.00
4054;DHT22;2042;47.956;9.222;2022-07-06T14:45:26;33.50;1.00
4054;DHT22;2042;47.956;9.222;2022-07-06T14:47:52;34.40;1.00
4054;DHT22;2042;47.956;9.222;2022-07-06T14:50:18;35.00;1.00
4054;DHT22;2042;47.956;9.222;2022-07-06T14:52:44;34.60;1.00
4054;DHT22;2042;47.956;9.222;2022-07-06T14:55:10;33.30;1.00
4054;DHT22;2042;47.956;9.222;2022-07-06T14:57:36;31.70;1.00
4054;DHT22;2042;47.956;9.222;2022-07-06T15:00:03;31.10;1.00
4054;DHT22;2042;47.956;9.222;2022-07-06T15:02:29;31.60;1.00
4054;DHT22;2042;47.956;9.222;2022-07-06T15:04:55;32.30;1.00
4054;DHT22;2042;47.956;9.222;2022-07-06T15:07:21;32.60;1.00
4054;DHT22;2042;47.956;9.222;2022-07-06T15:09:47;32.40;1.00
4054;DHT22;2042;47.956;9.222;2022-07-06T15:12:12;31.90;1.00
4054;DHT22;2042;47.956;9.222;2022-07-06T15:14:38;31.30;1.00
4054;DHT22;2042;47.956;9.222;2022-07-06T15:17:04;31.50;1.00
4054;DHT22;2042;47.956;9.222;2022-07-06T15:19:30;32.50;1.00
4054;DHT22;2042;47.956;9.222;2022-07-06T15:21:55;33.60;1.00
4054;DHT22;2042;47.956;9.222;2022-07-06T15:24:21;34.20;1.00
4054;DHT22;2042;47.956;9.222;2022-07-06T15:26:48;33.90;1.00
4054;DHT22;2042;47.956;9.222;2022-07-06T15:29:13;33.10;1.00
4054;DHT22;2042;47.956;9.222;2022-07-06T15:31:39;32.00;1.00
4054;DHT22;2042;47.956;9.222;2022-07-06T15:34:05;30.80;1.00
4054;DHT22;2042;47.956;9.222;2022-07-06T15:36:30;30.10;1.00
4054;DHT22;2042;47.956;9.222;2022-07-06T15:38:56;29.30;1.00
4054;DHT22;2042;47.956;9.222;2022-07-06T15:41:22;28.80;1.00
4054;DHT22;2042;47.956;9.222;2022-07-06T15:43:48;29.20;1.00
4054;DHT22;2042;47.956;9.222;2022-07-06T15:46:14;30.30;1.00
4054;DHT22;2042;47.956;9.222;2022-07-06T15:48:39;31.00;1.00
4054;DHT22;2042;47.956;9.222;2022-07-06T15:51:05;31.70;1.00
4054;DHT22;2042;47.956;9.222;2022-07-06T15:53:31;32.30;1.00
4054;DHT22;2042;47.956;9.222;2022-07-06T15:55:58;32.90;1.00
4054;DHT22;2042;47.956;9.222;2022-07-06T15:58:25;33.70;1.00
4054;DHT22;2042;47.956;9.222;2022-07-06T16:00:51;34.40;1.00
4054;DHT22;2042;47.956;9.222;2022-07-06T16:03:18;34.90;1.00
4054;DHT22;2042;47.956;9.222;2022-07-06T16:05:43;35.20;1.00
4054;DHT22;2042;47.956;9.222;2022-07-06T16:08:09;35.40;1.00
4054;DHT22;2042;47.956;9.222;2022-07-06T16:10:35;35.50;1.00
4054;DHT22;2042;47.956;9.222;2022-07-06T16:13:01;35.50;1.00
4054;DHT22;2042;47.956;9.222;2022-07-06T16:15:26;35.30;1.00
4054;DHT22;2042;47.956;9.222;2022-07-06T16:17:52;34.70;1.00
4054;DHT22;2042;47.956;9.222;2022-07-06T16:20:18;34.40;1.00
4054;DHT22;2042;47.956;9.222;2022-07-06T16:22:45;34.40;1.00
4054;DHT22;2042;47.956;9.222;2022-07-06T16:25:14;34.50;1.00
4054;DHT22;2042;47.956;9.222;2022-07-06T16:27:40;34.40;1.00
4054;DHT22;2042;47.956;9.222;2022-07-06T16:30:07;34.20;1.00
4054;DHT22;2042;47.956;9.222;2022-07-06T16:32:34;34.00;1.00
4054;DHT22;2042;47.956;9.222;2022-07-06T16:34:59;33.70;1.00
4054;DHT22;2042;47.956;9.222;2022-07-06T16:37:25;33.60;1.00
4054;DHT22;2042;47.956;9.222;2022-07-06T16:39:51;33.50;1.00
4054;DHT22;2042;47.956;9.222;2022-07-06T16:42:17;33.50;1.00
4054;DHT22;2042;47.956;9.222;2022-07-06T16:44:43;33.00;1.00
4054;DHT22;2042;47.956;9.222;2022-07-06T16:47:09;31.90;1.00
4054;DHT22;2042;47.956;9.222;2022-07-06T16:49:35;30.80;1.00
4054;DHT22;2042;47.956;9.222;2022-07-06T16:52:01;29.80;1.00
4054;DHT22;2042;47.956;9.222;2022-07-06T17:09:06;25.80;1.00
4054;DHT22;2042;47.956;9.222;2022-07-06T17:11:31;25.20;1.00
4054;DHT22;2042;47.956;9.222;2022-07-06T17:16:23;24.00;1.00
4054;DHT22;2042;47.956;9.222;2022-07-06T17:18:49;23.80;1.00
4054;DHT22;2042;47.956;9.222;2022-07-06T17:21:15;23.40;1.00
4054;DHT22;2042;47.956;9.222;2022-07-06T17:23:41;23.00;1.00
4054;DHT22;2042;47.956;9.222;2022-07-06T17:26:07;22.80;1.00
4054;DHT22;2042;47.956;9.222;2022-07-06T17:28:33;22.60;1.00
4054;DHT22;2042;47.956;9.222;2022-07-06T17:30:59;22.40;1.00
4054;DHT22;2042;47.956;9.222;2022-07-06T17:33:24;22.30;1.00
4054;DHT22;2042;47.956;9.222;2022-07-06T17:35:50;22.10;1.00
4054;DHT22;2042;47.956;9.222;2022-07-06T17:38:16;22.00;1.00
4054;DHT22;2042;47.956;9.222;2022-07-06T17:40:43;21.90;1.00
4054;DHT22;2042;47.956;9.222;2022-07-06T17:43:09;21.80;1.00
4054;DHT22;2042;47.956;9.222;2022-07-06T17:45:35;21.80;1.00
4054;DHT22;2042;47.956;9.222;2022-07-06T17:48:01;21.70;1.00
4054;DHT22;2042;47.956;9.222;2022-07-06T17:50:28;21.60;1.00
4054;DHT22;2042;47.956;9.222;2022-07-06T17:52:54;21.60;1.00
4054;DHT22;2042;47.956;9.222;2022-07-06T17:55:20;21.50;1.00
4054;DHT22;2042;47.956;9.222;2022-07-06T17:57:45;21.40;1.00
4054;DHT22;2042;47.956;9.222;2022-07-06T18:00:12;21.30;1.00
4054;DHT22;2042;47.956;9.222;2022-07-06T18:02:38;21.20;1.00
4054;DHT22;2042;47.956;9.222;2022-07-06T18:05:04;21.20;1.00
4054;DHT22;2042;47.956;9.222;2022-07-06T18:07:30;21.10;1.00
4054;DHT22;2042;47.956;9.222;2022-07-06T18:09:55;21.10;1.00
4054;DHT22;2042;47.956;9.222;2022-07-06T18:12:22;21.10;1.00
4054;DHT22;2042;47.956;9.222;2022-07-06T18:14:48;21.00;1.00
4054;DHT22;2042;47.956;9.222;2022-07-06T18:17:15;21.00;1.00
4054;DHT22;2042;47.956;9.222;2022-07-06T18:24:36;21.50;1.00
4054;DHT22;2042;47.956;9.222;2022-07-06T18:27:02;21.50;1.00
4054;DHT22;2042;47.956;9.222;2022-07-06T18:29:28;21.30;1.00
4054;DHT22;2042;47.956;9.222;2022-07-06T18:31:54;21.10;1.00
4054;DHT22;2042;47.956;9.222;2022-07-06T18:34:19;20.90;1.00
4054;DHT22;2042;47.956;9.222;2022-07-06T18:36:45;20.80;1.00
4054;DHT22;2042;47.956;9.222;2022-07-06T18:39:11;20.70;1.00
4054;DHT22;2042;47.956;9.222;2022-07-06T19:47:22;16.80;1.00
4054;DHT22;2042;47.956;9.222;2022-07-06T19:49:48;16.60;1.00
4054;DHT22;2042;47.956;9.222;2022-07-06T19:52:14;16.40;1.00
4054;DHT22;2042;47.956;9.222;2022-07-06T19:54:39;16.30;1.00
4054;DHT22;2042;47.956;9.222;2022-07-06T19:57:05;16.30;1.00
4054;DHT22;2042;47.956;9.222;2022-07-06T19:59:31;16.10;1.00
4054;DHT22;2042;47.956;9.222;2022-07-06T20:01:57;16.00;1.00
4054;DHT22;2042;47.956;9.222;2022-07-06T20:04:23;15.90;1.00
4054;DHT22;2042;47.956;9.222;2022-07-06T20:06:49;15.80;1.00
4054;DHT22;2042;47.956;9.222;2022-07-06T20:09:15;15.70;1.00
4054;DHT22;2042;47.956;9.222;2022-07-06T20:11:41;15.70;1.00
4054;DHT22;2042;47.956;9.222;2022-07-06T20:14:07;15.50;1.00
4054;DHT22;2042;47.956;9.222;2022-07-06T20:16:32;15.40;1.00
4054;DHT22;2042;47.956;9.222;2022-07-06T20:21:24;15.10;1.00
4054;DHT22;2042;47.956;9.222;2022-07-06T20:23:50;15.00;1.00
4054;DHT22;2042;47.956;9.222;2022-07-06T20:26:16;14.90;1.00
4054;DHT22;2042;47.956;9.222;2022-07-06T20:28:41;14.80;1.00
4054;DHT22;2042;47.956;9.222;2022-07-06T20:31:08;14.70;1.00
4054;DHT22;2042;47.956;9.222;2022-07-06T20:33:34;14.50;1.00
4054;DHT22;2042;47.956;9.222;2022-07-06T20:36:00;14.40;1.00
4054;DHT22;2042;47.956;9.222;2022-07-06T20:38:27;14.30;1.00
4054;DHT22;2042;47.956;9.222;2022-07-06T20:40:53;14.20;1.00
4054;DHT22;2042;47.956;9.222;2022-07-06T20:43:18;14.20;1.00
4054;DHT22;2042;47.956;9.222;2022-07-06T20:45:44;14.10;1.00
4054;DHT22;2042;47.956;9.222;2022-07-06T20:48:10;14.10;1.00
4054;DHT22;2042;47.956;9.222;2022-07-06T20:50:35;14.00;1.00
4054;DHT22;2042;47.956;9.222;2022-07-06T20:53:01;13.90;1.00
4054;DHT22;2042;47.956;9.222;2022-07-06T20:55:28;13.90;1.00
4054;DHT22;2042;47.956;9.222;2022-07-06T20:57:55;13.90;1.00
4054;DHT22;2042;47.956;9.222;2022-07-06T21:00:21;13.80;1.00
4054;DHT22;2042;47.956;9.222;2022-07-06T21:02:47;13.60;1.00
4054;DHT22;2042;47.956;9.222;2022-07-06T21:05:12;13.50;1.00
4054;DHT22;2042;47.956;9.222;2022-07-06T21:07:38;13.40;1.00
4054;DHT22;2042;47.956;9.222;2022-07-06T21:10:05;13.40;1.00
4054;DHT22;2042;47.956;9.222;2022-07-06T21:12:31;13.30;1.00
4054;DHT22;2042;47.956;9.222;2022-07-06T21:14:56;13.30;1.00
4054;DHT22;2042;47.956;9.222;2022-07-06T21:17:22;13.20;1.00
4054;DHT22;2042;47.956;9.222;2022-07-06T21:19:48;13.10;1.00
4054;DHT22;2042;47.956;9.222;2022-07-06T21:22:13;13.00;1.00
4054;DHT22;2042;47.956;9.222;2022-07-06T21:24:39;12.90;1.00
4054;DHT22;2042;47.956;9.222;2022-07-06T21:27:05;12.80;1.00
4054;DHT22;2042;47.956;9.222;2022-07-06T21:29:31;12.80;1.00
4054;DHT22;2042;47.956;9.222;2022-07-06T21:31:57;12.80;1.00